Time;durP1;ratioP1;P1;durP2;ratioP2;P2;SDS_P1;SDS_P2;PMS_P1;PMS_P2;Temp;Humidity;BMP_temperature;BMP_pressure;BME280_temperature;BME280_humidity;BME280_pressure;Samples;Min_cycle;Max_cycle;Signal;HPM_P1;HPM_P2
2023/09/14 00:00:45;;;;;;;5.05;2.50;;;;;;;10.64;100.00;99027.00;6110859;19;20483;-74
2023/09/14 00:02:45;;;;;;;4.18;2.42;;;;;;;10.59;100.00;99022.56;6111537;19;20002;-74
2023/09/14 00:04:46;;;;;;;6.10;2.30;;;;;;;10.53;100.00;99023.22;6110376;19;20059;-74
2023/09/14 00:06:48;;;;;;;4.25;2.22;;;;;;;10.48;100.00;99016.00;6111488;19;20380;-74
2023/09/14 00:08:48;;;;;;;3.78;2.00;;;;;;;10.44;100.00;99019.88;6109142;19;20086;-74
2023/09/14 00:10:53;;;;;;;4.45;2.30;;;;;;;10.43;100.00;99016.31;6112147;19;20362;-74
2023/09/14 00:12:55;;;;;;;4.50;2.40;;;;;;;10.45;100.00;99016.75;6111338;19;20368;-74
2023/09/14 00:14:55;;;;;;;4.20;1.95;;;;;;;10.41;100.00;99013.88;6113240;19;20014;-74
2023/09/14 00:16:56;;;;;;;4.43;2.60;;;;;;;10.44;100.00;99019.88;6111651;19;20367;-74
2023/09/14 00:18:56;;;;;;;4.15;2.35;;;;;;;10.46;100.00;99017.53;6107868;19;20487;-74
2023/09/14 00:20:57;;;;;;;4.32;2.15;;;;;;;10.44;100.00;99020.69;6110979;19;20015;-74
2023/09/14 00:22:58;;;;;;;4.35;2.10;;;;;;;10.41;100.00;99018.63;6112047;19;20396;-74
2023/09/14 00:24:59;;;;;;;3.75;2.33;;;;;;;10.33;100.00;99019.63;6111424;19;20720;-74
2023/09/14 00:26:59;;;;;;;4.13;2.40;;;;;;;10.30;100.00;99023.94;6111427;19;20079;-74
2023/09/14 00:29:00;;;;;;;3.42;2.13;;;;;;;10.27;100.00;99023.88;6111213;19;20719;-74
2023/09/14 00:31:00;;;;;;;5.88;2.13;;;;;;;10.26;100.00;99013.94;6110896;19;20082;-74
2023/09/14 00:33:00;;;;;;;6.25;2.50;;;;;;;10.18;100.00;99023.22;6111288;19;20013;-74
2023/09/14 00:35:01;;;;;;;5.15;2.28;;;;;;;10.16;100.00;99025.56;6112153;19;20011;-74
2023/09/14 00:37:01;;;;;;;4.85;2.30;;;;;;;10.09;100.00;99021.50;6110656;19;20034;-74
2023/09/14 00:39:01;;;;;;;7.45;2.65;;;;;;;10.06;100.00;99024.97;6109878;19;20014;-74
2023/09/14 00:41:02;;;;;;;3.67;2.20;;;;;;;10.06;100.00;99024.16;6112218;19;20006;-74
2023/09/14 00:43:03;;;;;;;7.57;2.25;;;;;;;10.02;100.00;99032.41;6112164;19;20010;-74
2023/09/14 00:45:03;;;;;;;6.38;2.60;;;;;;;9.97;100.00;99026.34;6111069;19;20006;-74
2023/09/14 00:47:04;;;;;;;6.03;2.90;;;;;;;9.94;100.00;99029.84;6108914;19;20049;-74
2023/09/14 00:49:04;;;;;;;5.20;2.80;;;;;;;9.93;100.00;99026.28;6109938;19;20006;-74
2023/09/14 00:51:06;;;;;;;5.70;2.13;;;;;;;9.93;100.00;99022.69;6110602;19;20013;-74
2023/09/14 00:53:11;;;;;;;4.20;2.30;;;;;;;9.90;100.00;99023.41;6111556;19;20011;-74
2023/09/14 00:55:17;;;;;;;7.13;3.03;;;;;;;9.91;100.00;99019.47;6111454;19;20518;-74
2023/09/14 00:57:18;;;;;;;6.03;2.30;;;;;;;9.91;100.00;99016.72;6110210;19;20454;-74
2023/09/14 00:59:18;;;;;;;5.78;2.47;;;;;;;9.93;100.00;99014.38;6107954;19;20006;-74
2023/09/14 01:01:18;;;;;;;4.20;2.30;;;;;;;9.99;100.00;99016.50;6107691;19;20025;-74
2023/09/14 01:03:19;;;;;;;3.40;2.17;;;;;;;9.94;100.00;99016.81;6110467;19;20472;-74
2023/09/14 01:05:20;;;;;;;6.50;2.50;;;;;;;9.85;100.00;99007.91;6111129;19;20534;-74
2023/09/14 01:07:20;;;;;;;3.50;2.30;;;;;;;9.82;100.00;99008.63;6110225;19;20512;-74
2023/09/14 01:09:21;;;;;;;3.95;2.28;;;;;;;9.79;100.00;99012.13;6108676;19;20030;-74
2023/09/14 01:11:21;;;;;;;3.22;2.05;;;;;;;9.68;100.00;99009.13;6110865;19;20367;-74
2023/09/14 01:13:51;;;;;;;3.88;2.50;;;;;;;9.67;100.00;99001.16;6111836;19;20106;-74
2023/09/14 01:15:57;;;;;;;4.63;2.45;;;;;;;9.61;100.00;98997.09;6110630;19;20003;-74
2023/09/14 01:18:11;;;;;;;4.35;2.35;;;;;;;9.58;100.00;98996.63;6109371;19;20417;-74
2023/09/14 01:21:04;;;;;;;5.30;2.67;;;;;;;9.56;100.00;99004.47;6005057;19;2005042;-74
2023/09/14 01:23:19;;;;;;;5.45;2.20;;;;;;;9.55;100.00;99002.09;6109322;19;20360;-74
2023/09/14 01:25:39;;;;;;;5.40;2.58;;;;;;;9.59;100.00;99000.19;6111233;19;20030;-74
2023/09/14 01:27:39;;;;;;;5.72;2.55;;;;;;;9.66;100.00;98997.59;6109014;19;20434;-74
2023/09/14 01:29:40;;;;;;;4.40;2.72;;;;;;;9.67;100.00;99003.91;6108786;19;20006;-74
2023/09/14 01:31:42;;;;;;;4.20;2.38;;;;;;;9.62;100.00;99004.22;6109573;19;20030;-74
2023/09/14 01:33:42;;;;;;;5.32;2.60;;;;;;;9.60;100.00;99006.50;6110003;19;20010;-74
2023/09/14 01:35:58;;;;;;;3.88;2.45;;;;;;;9.52;100.00;99008.34;6109597;19;20026;-74
2023/09/14 01:37:59;;;;;;;4.40;2.70;;;;;;;9.48;100.00;99015.72;6108204;19;20409;-74
2023/09/14 01:40:00;;;;;;;6.55;2.33;;;;;;;9.46;100.00;99009.75;6109739;19;20054;-74
2023/09/14 01:42:01;;;;;;;6.25;2.53;;;;;;;9.39;100.00;99015.09;6108511;19;20070;-74
2023/09/14 01:44:03;;;;;;;6.90;2.50;;;;;;;9.32;100.00;99003.88;6109662;19;20460;-74
2023/09/14 01:46:04;;;;;;;3.83;2.47;;;;;;;9.26;100.00;99011.63;6108914;19;20014;-74
2023/09/14 01:48:05;;;;;;;5.95;2.05;;;;;;;9.23;100.00;99015.09;6107373;19;20010;-74
2023/09/14 01:50:05;;;;;;;11.63;2.50;;;;;;;9.18;100.00;99012.59;6108706;19;20002;-74
2023/09/14 01:52:07;;;;;;;5.78;2.65;;;;;;;9.15;100.00;99007.78;6110365;19;20313;-74
2023/09/14 01:54:07;;;;;;;4.63;2.30;;;;;;;9.12;100.00;99003.00;6108297;19;20033;-74
2023/09/14 01:56:07;;;;;;;6.78;2.55;;;;;;;9.05;100.00;99008.31;6108275;19;19995;-74
2023/09/14 01:58:09;;;;;;;4.53;3.00;;;;;;;8.96;100.00;99005.75;6107728;19;20003;-74
2023/09/14 02:00:09;;;;;;;5.93;3.15;;;;;;;8.94;100.00;99011.63;6109246;19;20407;-74
2023/09/14 02:02:10;;;;;;;6.13;2.65;;;;;;;8.96;100.00;99016.78;6107639;19;20042;-74
2023/09/14 02:04:10;;;;;;;5.75;2.45;;;;;;;8.97;100.00;99016.41;6109527;19;20016;-74
2023/09/14 02:06:10;;;;;;;4.68;2.50;;;;;;;9.05;100.00;99017.41;6108093;19;20010;-74
2023/09/14 02:08:11;;;;;;;4.82;2.40;;;;;;;9.07;100.00;99011.53;6107018;19;20020;-74
2023/09/14 02:10:11;;;;;;;8.27;2.58;;;;;;;9.07;100.00;99014.28;6108308;19;20141;-74
2023/09/14 02:12:12;;;;;;;4.97;2.47;;;;;;;9.14;100.00;99023.56;6111908;19;20491;-74
2023/09/14 02:14:12;;;;;;;5.75;2.70;;;;;;;9.19;100.00;99016.97;6114287;19;20062;-74
2023/09/14 02:16:12;;;;;;;4.30;2.35;;;;;;;9.18;100.00;99021.69;6113588;19;20023;-74
2023/09/14 02:18:13;;;;;;;4.60;2.13;;;;;;;9.18;100.00;99024.44;6109712;19;20014;-74
2023/09/14 02:20:13;;;;;;;4.18;2.45;;;;;;;9.10;100.00;99022.69;6113412;19;20010;-74
2023/09/14 02:22:13;;;;;;;6.70;2.50;;;;;;;8.93;100.00;99028.50;6114060;19;20007;-74
2023/09/14 02:24:14;;;;;;;3.92;2.42;;;;;;;8.81;100.00;99023.06;6115753;19;20029;-74
2023/09/14 02:26:14;;;;;;;6.20;3.08;;;;;;;8.76;100.00;99021.34;6113515;19;19999;-73
2023/09/14 02:28:15;;;;;;;5.22;2.25;;;;;;;8.75;100.00;99035.50;6112998;19;20474;-74
2023/09/14 02:30:15;;;;;;;6.32;3.00;;;;;;;8.66;100.00;99030.16;6113643;19;20014;-73
2023/09/14 02:32:16;;;;;;;5.60;2.65;;;;;;;8.66;100.00;99030.94;6112480;19;20003;-73
2023/09/14 02:34:16;;;;;;;4.75;2.63;;;;;;;8.63;100.00;99041.91;6114117;19;20466;-74
2023/09/14 02:36:16;;;;;;;4.38;2.90;;;;;;;8.62;100.00;99034.78;6114114;19;20002;-73
2023/09/14 02:38:17;;;;;;;5.80;2.80;;;;;;;8.60;100.00;99032.34;6111488;19;20038;-73
2023/09/14 02:40:18;;;;;;;8.40;2.88;;;;;;;8.60;100.00;99034.31;6113998;19;20476;-74
2023/09/14 02:42:18;;;;;;;7.03;3.03;;;;;;;8.62;100.00;99032.81;6113483;19;20007;-73
2023/09/14 02:44:18;;;;;;;5.68;2.80;;;;;;;8.61;100.00;99035.94;6114227;19;19999;-73
2023/09/14 02:46:19;;;;;;;4.13;2.75;;;;;;;8.57;100.00;99027.53;6112598;19;20361;-74
2023/09/14 02:48:19;;;;;;;5.50;2.80;;;;;;;8.59;100.00;99027.19;6112416;19;20895;-74
2023/09/14 02:50:19;;;;;;;6.60;3.08;;;;;;;8.58;100.00;99023.63;6107821;19;20040;-74
2023/09/14 02:52:20;;;;;;;5.95;3.00;;;;;;;8.63;100.00;99011.56;6113503;19;19998;-74
2023/09/14 02:54:20;;;;;;;5.05;3.22;;;;;;;8.73;100.00;99027.59;6112480;19;20463;-74
2023/09/14 02:56:20;;;;;;;5.03;2.70;;;;;;;8.76;100.00;99029.63;6111601;19;20026;-74
2023/09/14 02:58:21;;;;;;;6.47;3.22;;;;;;;8.78;100.00;99032.88;6107612;19;20571;-73
2023/09/14 03:00:21;;;;;;;7.13;3.42;;;;;;;8.73;100.00;99030.34;6110716;19;20006;-74
2023/09/14 03:02:22;;;;;;;7.03;3.45;;;;;;;8.64;100.00;99016.72;6111298;19;20002;-73
2023/09/14 03:04:23;;;;;;;4.53;2.80;;;;;;;8.61;100.00;99020.19;6112955;19;20016;-74
2023/09/14 03:06:23;;;;;;;8.15;2.92;;;;;;;8.57;100.00;99023.97;6110092;19;20003;-73
2023/09/14 03:08:23;;;;;;;3.90;2.63;;;;;;;8.61;100.00;99028.47;6110248;19;20003;-73
2023/09/14 03:10:24;;;;;;;4.70;2.75;;;;;;;8.63;100.00;99031.66;6110239;19;20458;-73
2023/09/14 03:12:24;;;;;;;5.68;3.58;;;;;;;8.62;100.00;99029.25;6112495;19;20003;-73
2023/09/14 03:14:24;;;;;;;3.90;2.80;;;;;;;8.57;100.00;99023.97;6111879;19;21056;-74
2023/09/14 03:16:25;;;;;;;5.40;3.40;;;;;;;8.54;100.00;99033.78;6109993;19;20565;-73
2023/09/14 03:18:25;;;;;;;6.28;2.60;;;;;;;8.63;100.00;99030.84;6107855;19;20010;-74
2023/09/14 03:20:26;;;;;;;3.92;2.80;;;;;;;8.66;100.00;99035.66;6112212;19;20456;-73
2023/09/14 03:22:26;;;;;;;5.07;2.95;;;;;;;8.70;100.00;99036.56;6111872;19;20347;-73
2023/09/14 03:24:26;;;;;;;5.85;3.00;;;;;;;8.65;100.00;99039.56;6110924;19;20067;-73
2023/09/14 03:26:27;;;;;;;5.18;2.90;;;;;;;8.60;100.00;99043.38;6112597;19;20026;-73
2023/09/14 03:28:27;;;;;;;6.18;2.50;;;;;;;8.49;100.00;99041.47;6110883;19;20007;-73
2023/09/14 03:30:28;;;;;;;6.95;2.63;;;;;;;8.36;100.00;99052.56;6109784;19;20440;-73
2023/09/14 03:32:28;;;;;;;6.85;3.35;;;;;;;8.36;100.00;99054.53;6111033;19;20556;-73
2023/09/14 03:34:28;;;;;;;6.90;3.00;;;;;;;8.38;100.00;99054.97;6111864;19;20585;-73
2023/09/14 03:36:29;;;;;;;7.05;3.00;;;;;;;8.31;100.00;99054.72;6111460;19;20090;-73
2023/09/14 03:38:29;;;;;;;3.22;2.42;;;;;;;8.31;100.00;99051.97;6109517;19;20010;-73
2023/09/14 03:40:30;;;;;;;4.57;2.85;;;;;;;8.34;100.00;99056.78;6110725;19;20512;-73
2023/09/14 03:42:31;;;;;;;5.43;2.97;;;;;;;8.32;100.00;99048.06;6107188;19;20088;-73
2023/09/14 03:44:31;;;;;;;3.50;2.50;;;;;;;8.28;100.00;99045.22;6107154;19;20589;-73
2023/09/14 03:46:32;;;;;;;4.30;2.55;;;;;;;8.33;100.00;99055.97;6109870;19;20010;-73
2023/09/14 03:48:32;;;;;;;4.68;3.03;;;;;;;8.30;100.00;99055.88;6108473;19;20006;-73
2023/09/14 03:50:33;;;;;;;7.35;3.13;;;;;;;8.23;100.00;99055.66;6110232;19;20522;-73
2023/09/14 03:52:33;;;;;;;8.40;3.25;;;;;;;8.16;100.00;99054.28;6109151;19;20019;-73
2023/09/14 03:54:33;;;;;;;6.78;3.30;;;;;;;8.09;100.00;99056.81;6108264;19;20006;-73
2023/09/14 03:56:34;;;;;;;4.30;2.80;;;;;;;8.07;100.00;99061.88;6108708;19;20025;-73
2023/09/14 03:58:35;;;;;;;5.35;2.85;;;;;;;8.04;100.00;99053.53;6107623;19;20058;-73
2023/09/14 04:00:35;;;;;;;5.15;3.03;;;;;;;8.03;100.00;99057.44;6107858;19;20014;-73
2023/09/14 04:02:35;;;;;;;7.78;3.50;;;;;;;7.97;100.00;99058.81;6108179;19;20034;-73
2023/09/14 04:04:40;;;;;;;7.70;2.72;;;;;;;7.97;100.00;99058.81;6109069;19;20006;-73
2023/09/14 04:06:40;;;;;;;3.83;2.55;;;;;;;7.92;100.00;99059.84;6107622;19;20478;-73
2023/09/14 04:08:41;;;;;;;17.88;3.88;;;;;;;7.94;100.00;99059.50;6107278;19;20037;-73
2023/09/14 04:10:42;;;;;;;5.90;3.00;;;;;;;7.94;100.00;99059.50;6106034;19;20030;-73
2023/09/14 04:12:43;;;;;;;5.70;3.13;;;;;;;7.95;100.00;99067.44;6109019;19;20486;-73
2023/09/14 04:14:43;;;;;;;5.60;2.85;;;;;;;7.97;100.00;99067.09;6106636;19;20007;-73
2023/09/14 04:16:43;;;;;;;6.75;3.22;;;;;;;7.97;100.00;99067.09;6107815;19;20336;-73
2023/09/14 04:18:44;;;;;;;5.45;2.75;;;;;;;7.95;100.00;99061.13;6104873;19;20262;-73
2023/09/14 04:20:47;;;;;;;6.22;3.80;;;;;;;7.97;100.00;99067.88;6107794;19;20017;-73
2023/09/14 04:22:48;;;;;;;7.32;3.40;;;;;;;7.94;100.00;99076.03;6107799;19;20050;-73
2023/09/14 04:24:49;;;;;;;5.47;3.03;;;;;;;7.96;100.00;99077.31;6107334;19;20020;-73
2023/09/14 04:26:50;;;;;;;12.70;3.50;;;;;;;7.97;100.00;99078.09;6108881;19;20043;-73
2023/09/14 04:28:50;;;;;;;5.60;2.78;;;;;;;8.03;100.00;99080.28;6105007;19;20003;-73
2023/09/14 04:30:57;;;;;;;5.30;2.88;;;;;;;8.07;100.00;99078.44;6108103;19;20007;-73
2023/09/14 04:32:58;;;;;;;4.75;2.55;;;;;;;8.07;100.00;99081.19;6108224;19;21394;-73
2023/09/14 04:34:58;;;;;;;5.65;2.70;;;;;;;8.03;100.00;99085.00;6106457;19;20007;-74
2023/09/14 04:36:58;;;;;;;5.82;3.08;;;;;;;7.94;100.00;99087.03;6107276;19;20094;-73
2023/09/14 04:39:03;;;;;;;7.68;4.20;;;;;;;7.88;100.00;99079.03;6106457;19;20120;-73
2023/09/14 04:41:04;;;;;;;6.40;2.78;;;;;;;7.83;100.00;99086.72;6107523;19;20018;-73
2023/09/14 04:43:05;;;;;;;4.82;2.72;;;;;;;7.77;100.00;99086.13;6106991;19;20018;-73
2023/09/14 04:45:06;;;;;;;6.88;3.28;;;;;;;7.77;100.00;99088.09;6104367;19;19998;-73
2023/09/14 04:47:06;;;;;;;7.32;3.15;;;;;;;7.84;100.00;99088.31;6107466;19;20002;-73
2023/09/14 04:49:06;;;;;;;5.18;2.38;;;;;;;7.94;100.00;99084.28;6105278;19;20025;-73
2023/09/14 04:51:07;;;;;;;5.72;2.90;;;;;;;8.01;100.00;99082.56;6109420;19;20010;-73
2023/09/14 04:53:07;;;;;;;5.85;3.00;;;;;;;8.08;100.00;99093.81;6110143;19;20007;-73
2023/09/14 04:55:09;;;;;;;7.68;3.20;;;;;;;8.00;100.00;99082.91;6108014;19;20078;-73
2023/09/14 04:57:09;;;;;;;5.68;2.50;;;;;;;7.99;100.00;99090.38;6109609;19;20013;-73
2023/09/14 04:59:10;;;;;;;4.93;2.60;;;;;;;7.89;100.00;99085.34;6105302;19;20474;-73
2023/09/14 05:01:10;;;;;;;7.13;2.35;;;;;;;7.79;100.00;99080.31;6108337;19;20013;-73
2023/09/14 05:03:10;;;;;;;8.10;3.22;;;;;;;7.71;100.00;99082.03;6109965;19;20010;-73
2023/09/14 05:05:11;;;;;;;6.20;2.80;;;;;;;7.70;100.00;99093.38;6109562;19;20003;-73
2023/09/14 05:07:11;;;;;;;9.55;3.45;;;;;;;7.84;100.00;99086.38;6109522;19;20010;-73
2023/09/14 05:09:12;;;;;;;7.75;2.85;;;;;;;7.92;100.00;99095.66;6104270;19;20020;-73
2023/09/14 05:11:12;;;;;;;6.55;3.40;;;;;;;7.93;100.00;99100.00;6102432;19;20011;-73
2023/09/14 05:13:12;;;;;;;9.48;2.80;;;;;;;7.85;100.00;99098.97;6104351;19;20010;-73
2023/09/14 05:15:12;;;;;;;7.68;3.03;;;;;;;7.73;100.00;99095.44;6104283;19;20014;-73
2023/09/14 05:17:13;;;;;;;5.90;2.80;;;;;;;7.67;100.00;99099.56;6103872;19;20021;-73
2023/09/14 05:19:13;;;;;;;5.45;2.83;;;;;;;7.69;100.00;99102.78;6099345;19;20002;-73
2023/09/14 05:21:13;;;;;;;6.30;2.60;;;;;;;7.77;100.00;99110.91;6107761;19;20006;-73
2023/09/14 05:23:14;;;;;;;4.60;3.20;;;;;;;7.80;100.00;99104.75;6106354;19;20010;-73
2023/09/14 05:25:14;;;;;;;5.82;3.08;;;;;;;7.81;100.00;99113.81;6107432;19;20003;-73
2023/09/14 05:27:15;;;;;;;6.70;2.80;;;;;;;7.85;100.00;99111.97;6107106;19;20014;-73
2023/09/14 05:29:15;;;;;;;8.18;3.20;;;;;;;7.88;100.00;99114.84;6104823;19;20017;-73
2023/09/14 05:31:15;;;;;;;12.93;3.40;;;;;;;7.91;100.00;99112.53;6108768;19;20044;-73
2023/09/14 05:33:15;;;;;;;8.32;3.08;;;;;;;7.95;100.00;99116.22;6107033;19;20431;-73
2023/09/14 05:35:16;;;;;;;6.03;2.78;;;;;;;7.99;100.00;99109.66;6107293;19;20014;-73
2023/09/14 05:37:16;;;;;;;6.80;3.25;;;;;;;8.02;100.00;99116.44;6109833;19;20003;-73
2023/09/14 05:39:17;;;;;;;5.45;3.13;;;;;;;8.14;100.00;99114.47;6106165;19;20033;-73
2023/09/14 05:41:17;;;;;;;6.85;2.65;;;;;;;8.16;100.00;99117.69;6108537;19;20014;-73
2023/09/14 05:43:17;;;;;;;6.65;2.40;;;;;;;8.14;100.00;99131.03;6109595;19;20015;-73
2023/09/14 05:45:18;;;;;;;14.93;3.58;;;;;;;8.10;100.00;99121.81;6108153;19;20032;-73
2023/09/14 05:47:18;;;;;;;5.80;2.83;;;;;;;8.09;100.00;99111.16;6107060;19;20107;-73
2023/09/14 05:49:18;;;;;;;4.60;2.78;;;;;;;8.06;100.00;99120.13;6105109;19;20381;-73
2023/09/14 05:51:19;;;;;;;6.43;3.38;;;;;;;8.08;100.00;99115.84;6108826;19;20078;-73
2023/09/14 05:53:19;;;;;;;5.78;2.83;;;;;;;8.10;100.00;99113.56;6109428;19;20020;-73
2023/09/14 05:55:19;;;;;;;4.85;2.47;;;;;;;8.15;100.00;99112.53;6108749;19;20003;-73
2023/09/14 05:57:20;;;;;;;6.20;3.03;;;;;;;8.14;100.00;99114.47;6109000;19;20410;-73
2023/09/14 05:59:21;;;;;;;7.38;3.10;;;;;;;8.22;100.00;99128.50;6106686;19;20491;-73
2023/09/14 06:01:21;;;;;;;6.20;3.10;;;;;;;8.22;100.00;99118.25;6107216;19;20442;-73
2023/09/14 06:03:22;;;;;;;7.25;2.92;;;;;;;8.28;100.00;99130.66;6109455;19;20014;-73
2023/09/14 06:05:22;;;;;;;6.65;3.15;;;;;;;8.33;100.00;99126.84;6108656;19;20332;-73
2023/09/14 06:07:25;;;;;;;6.30;2.72;;;;;;;8.35;100.00;99125.38;6108427;19;20011;-73
2023/09/14 06:09:26;;;;;;;6.60;4.10;;;;;;;8.45;100.00;99121.38;6107065;19;20018;-73
2023/09/14 06:11:27;;;;;;;5.55;2.92;;;;;;;8.59;100.00;99129.25;6108085;19;20015;-73
2023/09/14 06:13:28;;;;;;;5.50;2.70;;;;;;;8.70;100.00;99133.13;6108719;19;20542;-73
2023/09/14 06:15:29;;;;;;;5.13;2.88;;;;;;;8.80;100.00;99137.34;6107644;19;20017;-73
2023/09/14 06:17:29;;;;;;;5.50;2.97;;;;;;;8.83;100.00;99131.91;6108742;19;20926;-73
2023/09/14 06:19:30;;;;;;;4.97;2.83;;;;;;;8.82;100.00;99140.56;6105899;19;20011;-73
2023/09/14 06:21:30;;;;;;;6.35;3.55;;;;;;;8.84;100.00;99139.03;6107833;19;20006;-73
2023/09/14 06:23:30;;;;;;;5.00;3.05;;;;;;;8.86;100.00;99141.47;6106552;19;20051;-73
2023/09/14 06:25:30;;;;;;;7.63;3.20;;;;;;;8.86;100.00;99131.25;6107761;19;20487;-73
2023/09/14 06:27:31;;;;;;;5.32;3.08;;;;;;;8.90;100.00;99136.84;6107785;19;20537;-73
2023/09/14 06:29:31;;;;;;;4.47;2.85;;;;;;;9.00;100.00;99133.56;6106731;19;20470;-73
2023/09/14 06:31:32;;;;;;;6.50;3.10;;;;;;;9.04;100.00;99137.25;6105345;19;20799;-73
2023/09/14 06:33:32;;;;;;;5.85;3.00;;;;;;;9.08;100.00;99131.81;6107280;19;20013;-73
2023/09/14 06:35:32;;;;;;;5.65;2.47;;;;;;;9.11;100.00;99134.69;6107588;19;20018;-73
2023/09/14 06:37:32;;;;;;;5.82;3.17;;;;;;;9.17;100.00;99133.28;6107689;19;20007;-73
2023/09/14 06:39:33;;;;;;;6.53;2.95;;;;;;;9.25;100.00;99132.31;6106212;19;20014;-73
2023/09/14 06:41:33;;;;;;;6.70;2.97;;;;;;;9.31;100.00;99132.88;6108528;19;20367;-73
2023/09/14 06:43:34;;;;;;;9.80;3.92;;;;;;;9.36;100.00;99129.84;6107310;19;20084;-73
2023/09/14 06:45:34;;;;;;;5.20;2.45;;;;;;;9.42;100.00;99130.38;6108102;19;20034;-73
2023/09/14 06:47:34;;;;;;;5.32;3.08;;;;;;;9.47;100.00;99136.44;6106195;19;20002;-73
2023/09/14 06:49:35;;;;;;;4.40;2.80;;;;;;;9.53;100.00;99140.56;6105768;19;20506;-73
2023/09/14 06:51:35;;;;;;;6.63;3.05;;;;;;;9.62;100.00;99134.88;6107767;19;20023;-73
2023/09/14 06:53:35;;;;;;;9.30;2.90;;;;;;;9.70;100.00;99125.59;6105879;19;20011;-73
2023/09/14 06:55:39;;;;;;;5.13;2.72;;;;;;;9.76;100.00;99126.94;6106973;19;20017;-73
2023/09/14 06:57:40;;;;;;;6.55;3.47;;;;;;;9.85;100.00;99132.28;6107661;19;20003;-73
2023/09/14 06:59:40;;;;;;;6.50;3.03;;;;;;;9.97;100.00;99139.66;6111175;19;20342;-73
2023/09/14 07:01:40;;;;;;;8.30;3.03;;;;;;;10.03;100.00;99141.81;6110201;19;20469;-73
2023/09/14 07:03:41;;;;;;;9.95;3.25;;;;;;;10.15;100.00;99135.38;6111414;19;20011;-73
2023/09/14 07:05:41;;;;;;;7.97;3.53;;;;;;;10.21;100.00;99133.94;6110867;19;20068;-73
2023/09/14 07:07:41;;;;;;;8.45;3.60;;;;;;;10.32;100.00;99135.00;6111616;19;20003;-73
2023/09/14 07:09:42;;;;;;;6.28;3.53;;;;;;;10.38;100.00;99132.78;6111191;19;20005;-73
2023/09/14 07:11:42;;;;;;;6.43;2.85;;;;;;;10.38;100.00;99136.34;6112559;19;20455;-73
2023/09/14 07:13:42;;;;;;;10.85;3.65;;;;;;;10.47;100.00;99133.38;6113073;19;20002;-73
2023/09/14 07:15:43;;;;;;;7.90;3.10;;;;;;;10.55;100.00;99140.66;6111208;19;20487;-73
2023/09/14 07:17:43;;;;;;;6.72;3.08;;;;;;;10.58;100.00;99151.00;6112332;19;20458;-73
2023/09/14 07:19:43;;;;;;;6.65;3.20;;;;;;;10.63;100.00;99156.25;6109627;19;20377;-73
2023/09/14 07:21:44;;;;;;;7.38;2.95;;;;;;;10.66;100.00;99155.53;6110585;19;20113;-73
2023/09/14 07:23:46;;;;;;;8.23;3.10;;;;;;;10.78;100.00;99151.03;6112709;19;20015;-73
2023/09/14 07:25:48;;;;;;;6.53;3.10;;;;;;;10.82;100.00;99146.38;6111224;19;20078;-73
2023/09/14 07:27:48;;;;;;;8.45;4.32;;;;;;;10.84;100.00;99155.09;6111171;19;20355;-73
2023/09/14 07:29:49;;;;;;;8.52;3.55;;;;;;;10.89;100.00;99163.13;6111285;19;20010;-73
2023/09/14 07:31:50;;;;;;;11.90;3.95;;;;;;;10.96;100.00;99166.06;6111398;19;20007;-73
2023/09/14 07:33:51;;;;;;;3.72;2.85;;;;;;;11.10;100.00;99169.13;6113114;19;20018;-73
2023/09/14 07:35:52;;;;;;;8.93;3.20;;;;;;;11.16;100.00;99169.59;6112419;19;20514;-73
2023/09/14 07:37:52;;;;;;;8.77;3.83;;;;;;;11.24;100.00;99174.13;6109664;19;20118;-73
2023/09/14 07:39:52;;;;;;;7.72;3.40;;;;;;;11.36;100.00;99185.06;6112450;19;20006;-73
2023/09/14 07:41:56;;;;;;;7.68;3.95;;;;;;;11.36;100.00;99175.97;6110617;19;20010;-73
2023/09/14 07:43:57;;;;;;;7.43;3.03;;;;;;;11.40;100.00;99179.59;6111366;19;20002;-73
2023/09/14 07:45:57;;;;;;;6.32;2.88;;;;;;;11.41;100.00;99178.41;6110630;19;20006;-73
2023/09/14 07:47:57;;;;;;;8.10;3.53;;;;;;;11.42;100.00;99178.06;6110404;19;20019;-73
2023/09/14 07:49:58;;;;;;;6.95;3.65;;;;;;;11.50;100.00;99187.28;6105914;19;20546;-73
2023/09/14 07:51:58;;;;;;;5.32;3.45;;;;;;;11.64;100.00;99178.44;6107513;19;20008;-73
2023/09/14 07:54:00;;;;;;;8.25;3.80;;;;;;;11.70;100.00;99190.84;6110043;19;20006;-73
2023/09/14 07:56:00;;;;;;;11.05;3.95;;;;;;;11.80;100.00;99191.06;6110880;19;20014;-73
2023/09/14 07:58:01;;;;;;;5.97;3.28;;;;;;;11.80;100.00;99191.06;6109763;19;20027;-73
2023/09/14 08:00:01;;;;;;;7.93;2.88;;;;;;;11.80;100.00;99193.84;6110686;19;20003;-73
2023/09/14 08:02:02;;;;;;;8.85;4.45;;;;;;;11.79;100.00;99191.41;6109158;19;20569;-73
2023/09/14 08:04:03;;;;;;;7.13;3.88;;;;;;;11.87;100.00;99189.59;6111108;19;20010;-73
2023/09/14 08:06:03;;;;;;;6.53;3.20;;;;;;;11.91;100.00;99194.00;6109847;19;20022;-73
2023/09/14 08:08:04;;;;;;;8.18;3.78;;;;;;;11.91;100.00;99193.22;6108189;19;20038;-73
2023/09/14 08:10:05;;;;;;;7.10;3.22;;;;;;;12.02;100.00;99197.78;6106528;19;20362;-73
2023/09/14 08:12:05;;;;;;;10.10;3.33;;;;;;;12.04;100.00;99200.19;6109206;19;20517;-73
2023/09/14 08:14:06;;;;;;;8.20;3.10;;;;;;;12.08;100.00;99201.03;6110165;19;20014;-73
2023/09/14 08:16:06;;;;;;;5.57;3.10;;;;;;;12.10;100.00;99201.50;6110916;19;20035;-73
2023/09/14 08:18:07;;;;;;;6.97;2.95;;;;;;;12.13;100.00;99203.50;6108131;19;20022;-73
2023/09/14 08:20:07;;;;;;;6.68;2.88;;;;;;;12.18;100.00;99208.75;6109996;19;20401;-73
2023/09/14 08:22:08;;;;;;;6.88;3.40;;;;;;;12.25;100.00;99208.09;6110980;19;20029;-73
2023/09/14 08:24:08;;;;;;;9.18;3.13;;;;;;;12.26;100.00;99207.72;6110895;19;20006;-73
2023/09/14 08:26:09;;;;;;;4.55;2.53;;;;;;;12.34;100.00;99205.84;6108033;19;19999;-73
2023/09/14 08:28:12;;;;;;;8.05;2.90;;;;;;;12.42;100.00;99210.34;6107976;19;20292;-73
2023/09/14 08:30:13;;;;;;;8.68;3.10;;;;;;;12.46;100.00;99211.19;6110585;19;20557;-73
2023/09/14 08:32:14;;;;;;;8.00;2.60;;;;;;;12.47;100.00;99214.75;6111196;19;20470;-73
2023/09/14 08:34:14;;;;;;;8.32;3.10;;;;;;;12.51;100.00;99208.09;6110251;19;20003;-73
2023/09/14 08:36:14;;;;;;;5.57;2.33;;;;;;;12.57;100.00;99214.91;6109917;19;20011;-73
2023/09/14 08:38:15;;;;;;;12.20;4.05;;;;;;;12.66;100.00;99220.22;6107680;19;20011;-73
2023/09/14 08:40:17;;;;;;;6.45;2.72;;;;;;;12.71;100.00;99210.75;6109812;19;20026;-73
2023/09/14 08:42:19;;;;;;;9.20;3.33;;;;;;;12.87;100.00;99222.50;6111054;19;20096;-73
2023/09/14 08:44:21;;;;;;;4.53;2.63;;;;;;;12.78;100.00;99216.41;6111827;19;20026;-73
2023/09/14 08:46:23;;;;;;;5.82;3.20;;;;;;;12.74;100.00;99218.31;6110065;19;20019;-73
2023/09/14 08:48:28;;;;;;;6.50;2.83;;;;;;;12.73;100.00;99214.75;6107580;19;20038;-73
2023/09/14 08:50:31;;;;;;;6.15;3.13;;;;;;;12.74;100.00;99207.22;6109344;19;20348;-73
2023/09/14 08:52:32;;;;;;;;;;;;;;;12.78;100.00;99216.41;6110433;19;20393;-73
2023/09/14 08:54:33;;;;;;;4.97;2.88;;;;;;;12.84;100.00;99198.25;6106305;19;19978;-74
2023/09/14 08:56:35;;;;;;;7.10;2.60;;;;;;;13.05;100.00;99209.66;6107771;19;20011;-73
2023/09/14 08:58:36;;;;;;;4.60;2.70;;;;;;;13.22;100.00;99202.75;6107555;19;20082;-73
2023/09/14 09:00:37;;;;;;;9.98;3.08;;;;;;;13.28;100.00;99206.78;6107308;19;20074;-73
2023/09/14 09:02:38;;;;;;;9.48;2.50;;;;;;;13.40;100.00;99219.63;6109075;19;20235;-73
2023/09/14 09:04:39;;;;;;;7.40;2.50;;;;;;;13.44;100.00;99210.16;6108465;19;20013;-73
2023/09/14 09:06:40;;;;;;;8.05;3.50;;;;;;;13.55;100.00;99218.63;6107457;19;20007;-73
2023/09/14 09:08:41;;;;;;;6.68;2.60;;;;;;;13.67;100.00;99212.81;6105881;19;20003;-73
2023/09/14 09:10:43;;;;;;;4.97;2.42;;;;;;;13.77;100.00;99206.56;6107614;19;20471;-73
2023/09/14 09:12:45;;;;;;;5.80;2.42;;;;;;;13.88;100.00;99208.63;6107513;19;20041;-73
2023/09/14 09:14:47;;;;;;;8.80;3.08;;;;;;;13.89;100.00;99210.22;6108253;19;20007;-73
2023/09/14 09:16:47;;;;;;;8.48;3.25;;;;;;;13.97;100.00;99207.13;6109061;19;20047;-73
2023/09/14 09:19:02;;;;;;;8.57;2.95;;;;;;;13.90;100.00;99209.88;6106723;19;20011;-73
2023/09/14 09:21:05;;;;;;;9.02;3.05;;;;;;;13.93;100.00;99208.31;6105078;19;20041;-73
2023/09/14 09:23:07;;;;;;;9.15;2.70;;;;;;;13.97;100.00;99207.13;6107620;19;20006;-73
2023/09/14 09:25:09;;;;;;;6.40;2.87;;;;;;;13.92;100.00;99212.28;6107026;19;20010;-73
2023/09/14 09:27:25;;;;;;;7.38;3.10;;;;;;;13.78;100.00;99199.81;6107772;19;20271;-73
2023/09/14 09:29:26;;;;;;;6.28;2.58;;;;;;;13.78;100.00;99204.56;6106768;19;20014;-73